Time;durP1;ratioP1;P1;durP2;ratioP2;P2;SDS_P1;SDS_P2;PMS_P1;PMS_P2;Temp;Humidity;BMP_temperature;BMP_pressure;BME280_temperature;BME280_humidity;BME280_pressure;Samples;Min_cycle;Max_cycle;Signal;HPM_P1;HPM_P2
2022/05/01 00:00:27;;;;;;;;;;;16.80;66.30;;;;;;2029768;28;20028;-66
2022/05/01 00:01:25;;;;;;;;;;;16.80;66.40;;;;;;2029523;28;19911;-66
2022/05/01 00:02:24;;;;;;;;;;;16.80;66.30;;;;;;2029645;28;19908;-66
2022/05/01 00:03:31;;;;;;;;;;;16.70;65.90;;;;;;2029786;28;19940;-66
2022/05/01 00:04:30;;;;;;;;;;;16.80;66.50;;;;;;2029750;28;20261;-66
2022/05/01 00:05:29;;;;;;;;;;;16.70;66.50;;;;;;2030138;28;19955;-66
2022/05/01 00:06:30;;;;;;;;;;;16.80;66.30;;;;;;2031185;28;19920;-65
2022/05/01 00:07:28;;;;;;;;;;;16.70;66.50;;;;;;2032091;28;20395;-65
2022/05/01 00:08:27;;;;;;;;;;;16.70;65.90;;;;;;2032233;28;19905;-66
2022/05/01 00:09:25;;;;;;;;;;;16.80;66.80;;;;;;2030215;28;19912;-65
2022/05/01 00:10:24;;;;;;;;;;;16.80;66.20;;;;;;2029851;28;20291;-64
2022/05/01 00:11:23;;;;;;;;;;;16.70;66.60;;;;;;2029851;28;19996;-65
2022/05/01 00:12:22;;;;;;;;;;;16.70;66.00;;;;;;2029677;28;20361;-65
2022/05/01 00:13:21;;;;;;;;;;;16.70;65.80;;;;;;2029732;28;19977;-66
2022/05/01 00:14:20;;;;;;;;;;;16.70;66.00;;;;;;2029796;28;20243;-66
2022/05/01 00:15:18;;;;;;;;;;;16.80;65.90;;;;;;2029830;28;19904;-66
2022/05/01 00:16:17;;;;;;;;;;;16.70;66.00;;;;;;2029544;28;20281;-66
2022/05/01 00:17:17;;;;;;;;;;;16.80;66.00;;;;;;2029772;28;19936;-66
2022/05/01 00:18:15;;;;;;;;;;;16.70;65.90;;;;;;2029635;28;19928;-66
2022/05/01 00:19:13;;;;;;;;;;;16.80;66.10;;;;;;2029607;28;19908;-65
2022/05/01 00:20:14;;;;;;;;;;;16.70;65.80;;;;;;2029575;28;19995;-65
2022/05/01 00:21:12;;;;;;;;;;;16.80;65.80;;;;;;2029621;28;19911;-65
2022/05/01 00:22:11;;;;;;;;;;;16.70;66.00;;;;;;2029609;28;19966;-65
2022/05/01 00:23:10;;;;;;;;;;;16.80;65.90;;;;;;2029517;28;20276;-65
2022/05/01 00:24:09;;;;;;;;;;;16.80;66.30;;;;;;2029417;28;19905;-65
2022/05/01 00:25:08;;;;;;;;;;;16.80;65.90;;;;;;2029598;28;19904;-67
2022/05/01 00:26:07;;;;;;;;;;;16.80;66.50;;;;;;2029414;28;19911;-66
2022/05/01 00:27:05;;;;;;;;;;;16.70;66.30;;;;;;2029426;28;19904;-66
2022/05/01 00:28:04;;;;;;;;;;;16.80;65.80;;;;;;2029590;28;19904;-66
2022/05/01 00:29:06;;;;;;;;;;;16.70;66.50;;;;;;2029433;28;20378;-66
2022/05/01 00:30:05;;;;;;;;;;;16.80;66.60;;;;;;2029477;28;19905;-65
2022/05/01 00:31:05;;;;;;;;;;;16.80;67.20;;;;;;2029555;28;19908;-65
2022/05/01 00:32:04;;;;;;;;;;;16.70;66.30;;;;;;2029767;28;20303;-65
2022/05/01 00:36:55;;;;;;;;;;;16.70;66.40;;;;;;2029403;28;19904;-67
2022/05/01 00:37:53;;;;;;;;;;;16.70;66.90;;;;;;2029470;28;19951;-65
2022/05/01 00:38:53;;;;;;;;;;;16.60;65.70;;;;;;2029564;28;19912;-66
2022/05/01 00:39:51;;;;;;;;;;;16.70;66.00;;;;;;2028796;28;19973;-66
2022/05/01 00:40:50;;;;;;;;;;;16.70;65.50;;;;;;2028888;28;19904;-65
2022/05/01 00:41:49;;;;;;;;;;;16.70;66.00;;;;;;2029349;28;19950;-65
2022/05/01 00:42:47;;;;;;;;;;;16.70;65.60;;;;;;2029436;28;19957;-65
2022/05/01 00:44:05;;;;;;;;;;;16.60;65.50;;;;;;2029284;28;19920;-66
2022/05/01 00:45:03;;;;;;;;;;;16.70;67.60;;;;;;2029402;28;19908;-66
2022/05/01 00:46:02;;;;;;;;;;;16.70;65.80;;;;;;2029464;28;19909;-65
2022/05/01 00:47:00;;;;;;;;;;;16.70;65.40;;;;;;2029305;28;19904;-65
2022/05/01 00:47:59;;;;;;;;;;;16.60;66.20;;;;;;2029341;28;19991;-65
2022/05/01 00:48:59;;;;;;;;;;;16.70;65.80;;;;;;2029066;28;19999;-66
2022/05/01 00:49:57;;;;;;;;;;;16.70;65.90;;;;;;2029445;28;20327;-66
2022/05/01 00:50:56;;;;;;;;;;;16.70;65.40;;;;;;2029556;28;19927;-66
2022/05/01 00:52:04;;;;;;;;;;;16.60;65.50;;;;;;2029293;28;19905;-66
2022/05/01 00:53:05;;;;;;;;;;;16.70;68.10;;;;;;2029295;28;20275;-66
2022/05/01 00:54:05;;;;;;;;;;;16.80;65.90;;;;;;2029338;28;20496;-65
2022/05/01 00:55:04;;;;;;;;;;;16.70;65.90;;;;;;2028712;28;19908;-65
2022/05/01 00:56:03;;;;;;;;;;;16.70;66.20;;;;;;2028580;28;19959;-65
2022/05/01 00:57:02;;;;;;;;;;;16.60;65.60;;;;;;2029142;28;19949;-65
2022/05/01 00:58:01;;;;;;;;;;;16.70;66.00;;;;;;2029258;28;19904;-65
2022/05/01 00:59:00;;;;;;;;;;;16.70;66.60;;;;;;2029173;28;19905;-65
2022/05/01 00:59:58;;;;;;;;;;;16.70;66.00;;;;;;2029206;28;19947;-65
2022/05/01 01:00:57;;;;;;;;;;;16.70;65.90;;;;;;2029211;28;19904;-65
2022/05/01 01:01:57;;;;;;;;;;;16.70;65.60;;;;;;2029161;28;19904;-66
2022/05/01 01:02:55;;;;;;;;;;;16.70;66.30;;;;;;2029136;28;19904;-65
2022/05/01 01:03:54;;;;;;;;;;;16.70;65.70;;;;;;2029246;28;19920;-67
2022/05/01 01:04:53;;;;;;;;;;;16.70;65.60;;;;;;2028604;28;20398;-65
2022/05/01 01:05:51;;;;;;;;;;;16.70;65.70;;;;;;2028589;28;19927;-67
2022/05/01 01:06:50;;;;;;;;;;;16.70;65.30;;;;;;2028881;28;20019;-64
2022/05/01 01:07:48;;;;;;;;;;;16.60;65.90;;;;;;2029222;28;19954;-66
2022/05/01 01:08:47;;;;;;;;;;;16.60;65.70;;;;;;2029166;28;20363;-66
2022/05/01 01:09:45;;;;;;;;;;;16.70;65.60;;;;;;2029116;28;19904;-66
2022/05/01 01:10:43;;;;;;;;;;;16.70;65.30;;;;;;2029154;28;20011;-66
2022/05/01 01:11:42;;;;;;;;;;;16.70;65.00;;;;;;2029036;28;19904;-66
2022/05/01 01:12:56;;;;;;;;;;;16.70;65.80;;;;;;2029213;28;19911;-66
2022/05/01 01:13:55;;;;;;;;;;;16.70;65.50;;;;;;2029177;28;19926;-66
2022/05/01 01:14:54;;;;;;;;;;;16.80;65.00;;;;;;2029179;28;19955;-65
2022/05/01 01:15:54;;;;;;;;;;;16.70;64.70;;;;;;2029060;28;19911;-65
2022/05/01 01:16:52;;;;;;;;;;;16.70;65.20;;;;;;2029124;28;19936;-65
2022/05/01 01:17:54;;;;;;;;;;;16.50;64.10;;;;;;2029470;28;19904;-66
2022/05/01 01:18:53;;;;;;;;;;;16.70;64.80;;;;;;2029198;28;19911;-66
2022/05/01 01:19:51;;;;;;;;;;;16.60;64.10;;;;;;2029300;28;19915;-66
2022/05/01 01:20:53;;;;;;;;;;;16.60;64.10;;;;;;2029055;28;19911;-66
2022/05/01 01:21:52;;;;;;;;;;;16.60;64.70;;;;;;2029070;28;19904;-65
2022/05/01 01:22:51;;;;;;;;;;;16.70;64.40;;;;;;2028957;28;20339;-66
2022/05/01 01:23:52;;;;;;;;;;;16.60;65.00;;;;;;2029043;28;19904;-65
2022/05/01 01:24:50;;;;;;;;;;;16.60;64.50;;;;;;2029059;28;19904;-65
2022/05/01 01:25:49;;;;;;;;;;;16.60;64.00;;;;;;2029158;28;19990;-64
2022/05/01 01:26:48;;;;;;;;;;;16.60;64.20;;;;;;2029275;28;19927;-65
2022/05/01 01:27:47;;;;;;;;;;;16.60;64.00;;;;;;2029269;28;19904;-65
2022/05/01 01:28:47;;;;;;;;;;;16.60;64.00;;;;;;2029296;28;19908;-65
2022/05/01 01:32:22;;;;;;;;;;;16.50;63.90;;;;;;2029064;28;19908;-65
2022/05/01 01:33:21;;;;;;;;;;;16.40;63.80;;;;;;2029246;28;19904;-65
2022/05/01 01:34:21;;;;;;;;;;;16.50;64.10;;;;;;2028969;28;19982;-65
2022/05/01 01:35:22;;;;;;;;;;;16.60;64.00;;;;;;2028942;28;19944;-65
2022/05/01 01:36:21;;;;;;;;;;;16.50;64.20;;;;;;2028951;28;19928;-65
2022/05/01 01:37:19;;;;;;;;;;;16.60;64.80;;;;;;2029247;28;19904;-67
2022/05/01 01:38:19;;;;;;;;;;;16.60;64.50;;;;;;2029201;28;19912;-66
2022/05/01 01:39:18;;;;;;;;;;;16.60;66.00;;;;;;2028361;28;19912;-65
2022/05/01 01:40:20;;;;;;;;;;;16.60;65.00;;;;;;2028564;28;19947;-67
2022/05/01 01:41:21;;;;;;;;;;;16.60;65.00;;;;;;2029116;28;19927;-65
2022/05/01 01:42:20;;;;;;;;;;;16.50;64.20;;;;;;2029025;28;20344;-65
2022/05/01 01:43:24;;;;;;;;;;;16.50;64.20;;;;;;2029160;28;20003;-65
2022/05/01 01:44:23;;;;;;;;;;;16.60;66.00;;;;;;2029341;28;19927;-65
2022/05/01 01:45:22;;;;;;;;;;;16.60;64.40;;;;;;2029218;28;19958;-66
2022/05/01 01:46:20;;;;;;;;;;;16.50;64.40;;;;;;2028960;28;19962;-66
2022/05/01 01:47:19;;;;;;;;;;;16.60;63.80;;;;;;2029293;28;19947;-66
2022/05/01 01:48:18;;;;;;;;;;;16.60;63.80;;;;;;2029047;28;20275;-65
2022/05/01 01:49:17;;;;;;;;;;;16.50;64.50;;;;;;2029040;28;20366;-66
2022/05/01 01:50:17;;;;;;;;;;;16.60;64.50;;;;;;2029138;28;19904;-66
2022/05/01 01:51:17;;;;;;;;;;;16.60;65.10;;;;;;2029131;28;19904;-66
2022/05/01 01:52:15;;;;;;;;;;;16.60;64.40;;;;;;2028973;28;19958;-65
2022/05/01 01:53:14;;;;;;;;;;;16.60;64.00;;;;;;2029312;28;19905;-66
2022/05/01 01:54:13;;;;;;;;;;;16.60;63.70;;;;;;2029246;28;20255;-66
2022/05/01 01:55:13;;;;;;;;;;;16.60;63.60;;;;;;2029274;28;19904;-66
2022/05/01 01:56:11;;;;;;;;;;;16.60;63.70;;;;;;2029323;28;19911;-66
2022/05/01 01:57:10;;;;;;;;;;;16.50;63.60;;;;;;2029385;28;20280;-67
2022/05/01 01:58:08;;;;;;;;;;;16.60;63.60;;;;;;2029523;28;19911;-66
2022/05/01 01:59:07;;;;;;;;;;;16.50;63.30;;;;;;2034114;28;19966;-65
2022/05/01 02:00:06;;;;;;;;;;;16.60;64.40;;;;;;2036193;28;19918;-67
2022/05/01 02:01:05;;;;;;;;;;;16.60;65.10;;;;;;2037311;28;19904;-65
2022/05/01 02:02:04;;;;;;;;;;;16.60;63.70;;;;;;2037476;28;19905;-65
2022/05/01 02:03:04;;;;;;;;;;;16.60;63.20;;;;;;2038012;28;19904;-66
2022/05/01 02:04:02;;;;;;;;;;;16.60;63.60;;;;;;2037629;28;19892;-66
2022/05/01 02:05:00;;;;;;;;;;;16.60;62.90;;;;;;2036916;28;19905;-65
2022/05/01 02:05:59;;;;;;;;;;;16.50;62.80;;;;;;2032218;28;19946;-66
2022/05/01 02:06:58;;;;;;;;;;;16.60;62.90;;;;;;2028218;28;20015;-66
2022/05/01 02:07:57;;;;;;;;;;;16.60;62.80;;;;;;2028856;28;20008;-66
2022/05/01 02:08:58;;;;;;;;;;;16.50;62.80;;;;;;2028300;28;19991;-66
2022/05/01 02:09:57;;;;;;;;;;;16.80;62.90;;;;;;2028432;28;19912;-66
2022/05/01 02:10:55;;;;;;;;;;;16.60;62.80;;;;;;2028812;28;19912;-66
2022/05/01 02:11:53;;;;;;;;;;;16.50;62.60;;;;;;2029015;28;19908;-66
2022/05/01 02:12:52;;;;;;;;;;;16.60;62.70;;;;;;2028846;28;19940;-67
2022/05/01 02:13:51;;;;;;;;;;;16.60;62.90;;;;;;2028957;28;19904;-66
2022/05/01 02:14:49;;;;;;;;;;;16.60;62.70;;;;;;2029072;28;19904;-66
2022/05/01 02:15:49;;;;;;;;;;;16.50;62.60;;;;;;2029273;28;20212;-66
2022/05/01 02:16:48;;;;;;;;;;;16.50;62.60;;;;;;2028903;28;19905;-65
2022/05/01 02:17:49;;;;;;;;;;;16.60;62.60;;;;;;2028870;28;19905;-66
2022/05/01 02:18:48;;;;;;;;;;;16.50;62.60;;;;;;2028743;28;19911;-66
2022/05/01 02:19:46;;;;;;;;;;;16.60;62.50;;;;;;2028852;28;19951;-67
2022/05/01 02:22:02;;;;;;;;;;;16.50;62.40;;;;;;2028893;28;20340;-66
2022/05/01 02:23:01;;;;;;;;;;;16.50;62.50;;;;;;2028802;28;19905;-64
2022/05/01 02:24:01;;;;;;;;;;;16.50;62.40;;;;;;2028883;28;19950;-64
2022/05/01 02:25:00;;;;;;;;;;;16.50;62.50;;;;;;2028148;28;19904;-66
2022/05/01 02:25:58;;;;;;;;;;;16.50;62.50;;;;;;2028134;28;20363;-66
2022/05/01 02:26:56;;;;;;;;;;;16.50;62.40;;;;;;2028818;28;19973;-65
2022/05/01 02:27:55;;;;;;;;;;;16.50;62.40;;;;;;2028859;28;19911;-66
2022/05/01 02:28:54;;;;;;;;;;;16.50;63.10;;;;;;2028776;28;19912;-65
2022/05/01 02:29:53;;;;;;;;;;;16.60;62.50;;;;;;2028903;28;19904;-65
2022/05/01 02:30:52;;;;;;;;;;;16.50;62.40;;;;;;2028736;28;20023;-65
2022/05/01 02:31:55;;;;;;;;;;;16.50;62.70;;;;;;2028907;28;19911;-66
2022/05/01 02:32:53;;;;;;;;;;;16.50;62.40;;;;;;2028958;28;19908;-65
2022/05/01 02:33:52;;;;;;;;;;;16.50;62.40;;;;;;2028876;28;20374;-65
2022/05/01 02:34:52;;;;;;;;;;;16.50;62.40;;;;;;2028943;28;19904;-65
2022/05/01 02:35:50;;;;;;;;;;;16.50;62.40;;;;;;2029165;28;19904;-66
2022/05/01 02:36:53;;;;;;;;;;;16.50;62.40;;;;;;2028693;28;20256;-65
2022/05/01 02:37:51;;;;;;;;;;;16.50;62.90;;;;;;2028968;28;20301;-65
2022/05/01 02:38:49;;;;;;;;;;;16.50;62.50;;;;;;2028787;28;19996;-66
2022/05/01 02:39:48;;;;;;;;;;;16.50;62.60;;;;;;2028873;28;19904;-66
2022/05/01 02:40:46;;;;;;;;;;;16.50;62.50;;;;;;2028776;28;19905;-66
2022/05/01 02:41:45;;;;;;;;;;;16.50;62.50;;;;;;2028210;28;19919;-66
2022/05/01 02:42:43;;;;;;;;;;;16.50;62.60;;;;;;2028322;28;19915;-66
2022/05/01 02:43:42;;;;;;;;;;;16.60;62.70;;;;;;2028764;28;19904;-66
2022/05/01 02:44:40;;;;;;;;;;;16.50;62.50;;;;;;2028763;28;19948;-66
2022/05/01 02:45:39;;;;;;;;;;;16.50;62.50;;;;;;2028762;28;19904;-65
2022/05/01 02:46:37;;;;;;;;;;;16.50;62.50;;;;;;2028652;28;20275;-65
2022/05/01 02:47:36;;;;;;;;;;;16.50;62.60;;;;;;2028645;28;19905;-65
2022/05/01 02:48:36;;;;;;;;;;;16.20;62.30;;;;;;2028724;28;19947;-67
2022/05/01 02:49:35;;;;;;;;;;;16.50;62.90;;;;;;2028606;28;19947;-66
2022/05/01 02:50:33;;;;;;;;;;;16.50;62.60;;;;;;2028655;28;19908;-65
2022/05/01 02:51:32;;;;;;;;;;;16.50;62.60;;;;;;2028588;28;19948;-66
2022/05/01 02:52:32;;;;;;;;;;;16.60;62.70;;;;;;2028493;28;19938;-66
2022/05/01 02:53:31;;;;;;;;;;;16.60;62.90;;;;;;2028671;28;20340;-66
2022/05/01 02:54:30;;;;;;;;;;;16.50;62.90;;;;;;2028776;28;19969;-65
2022/05/01 02:55:28;;;;;;;;;;;16.50;62.60;;;;;;2029072;28;20029;-65
2022/05/01 02:56:27;;;;;;;;;;;16.50;62.70;;;;;;2029442;28;20198;-65
2022/05/01 02:57:25;;;;;;;;;;;16.50;62.70;;;;;;2029371;28;19926;-65
2022/05/01 02:58:23;;;;;;;;;;;16.50;62.70;;;;;;2029896;28;20471;-65
2022/05/01 02:59:22;;;;;;;;;;;16.50;62.70;;;;;;2029961;28;19912;-65
2022/05/01 03:00:20;;;;;;;;;;;16.50;62.80;;;;;;2029954;28;19905;-66
2022/05/01 03:01:19;;;;;;;;;;;16.60;62.80;;;;;;2028654;28;19956;-65
2022/05/01 03:02:17;;;;;;;;;;;16.50;62.80;;;;;;2028701;28;19910;-65
2022/05/01 03:03:15;;;;;;;;;;;16.50;62.80;;;;;;2028767;28;20244;-66
2022/05/01 03:04:14;;;;;;;;;;;16.50;62.70;;;;;;2028693;28;19940;-66
2022/05/01 03:05:13;;;;;;;;;;;16.50;62.80;;;;;;2028649;28;19911;-64
2022/05/01 03:06:11;;;;;;;;;;;16.50;62.90;;;;;;2028482;28;20229;-66
2022/05/01 03:07:12;;;;;;;;;;;16.50;62.70;;;;;;2028450;28;19964;-65
2022/05/01 03:08:12;;;;;;;;;;;16.50;62.80;;;;;;2028502;28;19944;-66
2022/05/01 03:09:10;;;;;;;;;;;16.50;62.70;;;;;;2028584;28;19905;-66
2022/05/01 03:10:10;;;;;;;;;;;16.50;62.70;;;;;;2028539;28;19904;-65
2022/05/01 03:11:08;;;;;;;;;;;16.50;62.90;;;;;;2028546;28;19926;-65
2022/05/01 03:12:07;;;;;;;;;;;16.50;62.90;;;;;;2030126;28;20299;-66
2022/05/01 03:13:05;;;;;;;;;;;16.50;63.10;;;;;;2030042;28;19912;-65
2022/05/01 03:14:04;;;;;;;;;;;16.50;63.00;;;;;;2030215;28;19948;-66
2022/05/01 03:15:06;;;;;;;;;;;16.50;63.00;;;;;;2030013;28;19904;-64
2022/05/01 03:16:04;;;;;;;;;;;16.50;63.40;;;;;;2029931;28;19963;-66
2022/05/01 03:17:03;;;;;;;;;;;16.50;63.00;;;;;;2029975;28;19909;-66
2022/05/01 03:22:13;;;;;;;;;;;16.50;63.20;;;;;;2030023;28;19958;-66
2022/05/01 03:23:12;;;;;;;;;;;16.50;63.10;;;;;;2029960;28;19999;-66
2022/05/01 03:24:10;;;;;;;;;;;16.50;63.10;;;;;;2029910;28;19904;-65
2022/05/01 03:25:08;;;;;;;;;;;16.50;63.10;;;;;;2029965;28;19904;-65
2022/05/01 03:26:07;;;;;;;;;;;16.50;63.00;;;;;;2029961;28;19948;-67
2022/05/01 03:27:06;;;;;;;;;;;16.50;63.00;;;;;;2029854;28;20275;-65
2022/05/01 03:28:04;;;;;;;;;;;16.50;63.10;;;;;;2029842;28;19966;-66
2022/05/01 03:29:02;;;;;;;;;;;16.50;63.10;;;;;;2030069;28;19911;-65
2022/05/01 03:30:16;;;;;;;;;;;16.50;63.10;;;;;;2029978;28;19915;-65
2022/05/01 03:31:15;;;;;;;;;;;16.50;63.00;;;;;;2029847;28;19908;-66
2022/05/01 03:32:13;;;;;;;;;;;16.50;63.30;;;;;;2029831;28;20058;-66
2022/05/01 03:33:12;;;;;;;;;;;16.50;63.20;;;;;;2029942;28;19905;-66
2022/05/01 03:34:11;;;;;;;;;;;16.50;63.20;;;;;;2029878;28;19958;-65
2022/05/01 03:35:09;;;;;;;;;;;16.50;63.20;;;;;;2029220;28;20119;-65
2022/05/01 03:36:09;;;;;;;;;;;16.50;63.20;;;;;;2029290;28;19904;-66
2022/05/01 03:37:07;;;;;;;;;;;16.50;63.50;;;;;;2029789;28;19927;-66
2022/05/01 03:38:09;;;;;;;;;;;16.50;63.40;;;;;;2029849;28;19911;-66
2022/05/01 03:39:08;;;;;;;;;;;16.50;63.50;;;;;;2030014;28;19944;-65
2022/05/01 03:40:07;;;;;;;;;;;16.50;63.20;;;;;;2029157;28;19905;-65
2022/05/01 03:41:07;;;;;;;;;;;16.50;63.80;;;;;;2029451;28;19908;-65
2022/05/01 03:42:05;;;;;;;;;;;16.40;63.60;;;;;;2029761;28;19904;-66
2022/05/01 03:43:04;;;;;;;;;;;16.50;64.10;;;;;;2029705;28;19908;-66
2022/05/01 03:44:03;;;;;;;;;;;16.50;63.70;;;;;;2029801;28;19912;-65
2022/05/01 03:45:02;;;;;;;;;;;16.50;63.50;;;;;;2029873;28;19905;-66
2022/05/01 03:46:01;;;;;;;;;;;16.50;63.70;;;;;;2029834;28;19930;-66
2022/05/01 03:46:59;;;;;;;;;;;16.40;63.50;;;;;;2029734;28;20321;-66
2022/05/01 03:47:58;;;;;;;;;;;16.50;63.40;;;;;;2029743;28;19971;-65
2022/05/01 03:48:57;;;;;;;;;;;16.50;63.30;;;;;;2029763;28;20000;-65
2022/05/01 03:49:56;;;;;;;;;;;16.50;63.90;;;;;;2029848;28;19904;-65
2022/05/01 03:50:55;;;;;;;;;;;16.50;63.60;;;;;;2029793;28;20371;-65
2022/05/01 03:51:53;;;;;;;;;;;16.50;63.80;;;;;;2029737;28;19908;-66
2022/05/01 03:52:52;;;;;;;;;;;16.50;63.50;;;;;;2029058;28;19973;-65
2022/05/01 03:53:50;;;;;;;;;;;16.50;63.40;;;;;;2029243;28;19904;-65
2022/05/01 03:54:49;;;;;;;;;;;16.50;63.40;;;;;;2029816;28;20279;-66
2022/05/01 03:55:48;;;;;;;;;;;16.50;63.40;;;;;;2029730;28;19912;-65
2022/05/01 03:56:46;;;;;;;;;;;16.40;64.00;;;;;;2029638;28;19908;-65
2022/05/01 03:57:44;;;;;;;;;;;16.40;63.70;;;;;;2029643;28;19904;-66
2022/05/01 03:58:43;;;;;;;;;;;16.50;63.60;;;;;;2029740;28;19916;-65
2022/05/01 03:59:41;;;;;;;;;;;16.50;63.60;;;;;;2029642;28;20385;-65
2022/05/01 04:00:41;;;;;;;;;;;16.50;63.60;;;;;;2029812;28;19908;-66
2022/05/01 04:01:39;;;;;;;;;;;16.50;64.00;;;;;;2029774;28;20040;-65
2022/05/01 04:02:42;;;;;;;;;;;16.40;63.50;;;;;;2029765;28;20032;-65
2022/05/01 04:03:41;;;;;;;;;;;16.50;66.20;;;;;;2029635;28;20317;-65
2022/05/01 04:04:39;;;;;;;;;;;16.40;63.90;;;;;;2029733;28;19904;-66
2022/05/01 04:05:38;;;;;;;;;;;16.50;64.00;;;;;;2029805;28;19971;-65
2022/05/01 04:06:36;;;;;;;;;;;16.40;64.00;;;;;;2029497;28;19916;-65
2022/05/01 04:07:35;;;;;;;;;;;16.40;63.70;;;;;;2029585;28;19967;-66
2022/05/01 04:08:33;;;;;;;;;;;16.40;63.70;;;;;;2029714;28;19908;-65
2022/05/01 04:09:32;;;;;;;;;;;16.40;64.30;;;;;;2029716;28;19912;-66
2022/05/01 04:10:31;;;;;;;;;;;16.50;64.00;;;;;;2029607;28;20008;-65
2022/05/01 04:11:29;;;;;;;;;;;16.50;64.20;;;;;;2029567;28;20283;-66
2022/05/01 04:12:28;;;;;;;;;;;16.50;64.20;;;;;;2029467;28;20352;-68
2022/05/01 04:13:26;;;;;;;;;;;16.50;64.00;;;;;;2029620;28;19904;-67
2022/05/01 04:14:24;;;;;;;;;;;16.50;64.60;;;;;;2029546;28;20348;-65
2022/05/01 04:15:23;;;;;;;;;;;16.40;64.40;;;;;;2029550;28;20019;-65
2022/05/01 04:16:21;;;;;;;;;;;16.50;66.70;;;;;;2029591;28;19904;-66
2022/05/01 04:17:20;;;;;;;;;;;16.40;69.30;;;;;;2029539;28;19904;-65
2022/05/01 04:18:18;;;;;;;;;;;16.40;69.20;;;;;;2029506;28;19905;-65
2022/05/01 04:19:17;;;;;;;;;;;16.40;66.30;;;;;;2029488;28;19961;-66
2022/05/01 04:20:16;;;;;;;;;;;16.50;64.20;;;;;;2029597;28;19905;-66
2022/05/01 04:21:15;;;;;;;;;;;16.50;66.60;;;;;;2029679;28;19904;-65
2022/05/01 04:22:13;;;;;;;;;;;16.40;64.20;;;;;;2029498;28;20379;-66
2022/05/01 04:23:11;;;;;;;;;;;16.40;64.10;;;;;;2028855;28;19954;-66
2022/05/01 04:24:10;;;;;;;;;;;16.40;63.80;;;;;;2029470;28;20276;-66
2022/05/01 04:25:22;;;;;;;;;;;16.50;64.00;;;;;;2029464;28;19927;-65
2022/05/01 04:26:20;;;;;;;;;;;16.40;66.10;;;;;;2029536;28;19904;-65
2022/05/01 04:27:19;;;;;;;;;;;16.40;64.00;;;;;;2029555;28;19904;-65
2022/05/01 04:28:18;;;;;;;;;;;16.50;65.20;;;;;;2029483;28;19904;-65
2022/05/01 04:30:34;;;;;;;;;;;16.40;64.10;;;;;;2029690;28;20279;-66
2022/05/01 04:31:32;;;;;;;;;;;16.40;65.10;;;;;;2029544;28;19904;-65
2022/05/01 04:32:31;;;;;;;;;;;16.50;63.80;;;;;;2029349;28;20417;-65
2022/05/01 04:33:29;;;;;;;;;;;16.50;63.30;;;;;;2029580;28;19904;-65
2022/05/01 04:34:28;;;;;;;;;;;16.40;63.40;;;;;;2029421;28;19912;-65
2022/05/01 04:35:29;;;;;;;;;;;16.40;63.70;;;;;;2029464;28;19940;-66
2022/05/01 04:36:27;;;;;;;;;;;16.30;64.20;;;;;;2029341;28;20263;-65
2022/05/01 04:37:25;;;;;;;;;;;16.50;64.10;;;;;;2029482;28;19904;-65
2022/05/01 04:38:25;;;;;;;;;;;16.40;63.70;;;;;;2029578;28;19909;-66
2022/05/01 04:39:23;;;;;;;;;;;16.40;64.30;;;;;;2029434;28;20241;-66
2022/05/01 04:40:22;;;;;;;;;;;16.40;64.40;;;;;;2029559;28;19958;-66
2022/05/01 04:41:21;;;;;;;;;;;16.40;63.90;;;;;;2029503;28;19928;-66
2022/05/01 04:42:20;;;;;;;;;;;16.40;64.30;;;;;;2029493;28;20060;-66
2022/05/01 04:43:20;;;;;;;;;;;16.40;66.60;;;;;;2029358;28;19912;-66
2022/05/01 04:44:19;;;;;;;;;;;16.30;64.30;;;;;;2029341;28;19904;-65
2022/05/01 04:45:17;;;;;;;;;;;16.50;64.00;;;;;;2029362;28;19950;-64
2022/05/01 04:46:15;;;;;;;;;;;16.40;63.60;;;;;;2029230;28;19955;-65
2022/05/01 04:47:14;;;;;;;;;;;16.40;63.90;;;;;;2029356;28;19909;-65
2022/05/01 04:48:13;;;;;;;;;;;16.50;63.90;;;;;;2029383;28;20367;-66
2022/05/01 04:49:12;;;;;;;;;;;16.50;64.50;;;;;;2029373;28;19905;-65
2022/05/01 04:50:11;;;;;;;;;;;16.40;63.70;;;;;;2029281;28;20215;-65
2022/05/01 04:51:10;;;;;;;;;;;16.40;63.80;;;;;;2029345;28;19912;-65
2022/05/01 04:52:09;;;;;;;;;;;16.50;64.00;;;;;;2029421;28;19933;-65
2022/05/01 04:53:12;;;;;;;;;;;16.40;63.70;;;;;;2029327;28;20005;-65
2022/05/01 04:54:11;;;;;;;;;;;16.40;64.90;;;;;;2029409;28;20266;-66
2022/05/01 04:55:10;;;;;;;;;;;16.40;65.40;;;;;;2029279;28;20333;-66
2022/05/01 04:57:25;;;;;;;;;;;16.30;64.10;;;;;;2029257;28;19904;-65
2022/05/01 04:58:24;;;;;;;;;;;16.40;64.10;;;;;;2029358;28;19908;-67
2022/05/01 04:59:23;;;;;;;;;;;16.40;63.90;;;;;;2029316;28;19938;-66
2022/05/01 05:00:21;;;;;;;;;;;16.30;63.70;;;;;;2028541;28;19905;-66
2022/05/01 05:01:20;;;;;;;;;;;16.50;64.80;;;;;;2028651;28;20322;-66
2022/05/01 05:02:18;;;;;;;;;;;16.40;63.70;;;;;;2029265;28;19904;-67
2022/05/01 05:03:17;;;;;;;;;;;16.50;63.70;;;;;;2029276;28;19912;-66
2022/05/01 05:04:16;;;;;;;;;;;16.40;63.60;;;;;;2029261;28;19905;-66
2022/05/01 05:05:15;;;;;;;;;;;16.40;63.70;;;;;;2029540;28;20343;-66
2022/05/01 05:06:13;;;;;;;;;;;16.40;64.30;;;;;;2028557;28;19940;-66
2022/05/01 05:07:11;;;;;;;;;;;16.40;63.30;;;;;;2020535;28;20007;-66
2022/05/01 05:10:47;;;;;;;;;;;16.40;63.50;;;;;;2029767;28;19940;-65
2022/05/01 05:11:47;;;;;;;;;;;16.50;64.40;;;;;;2028622;28;19905;-65
2022/05/01 05:12:46;;;;;;;;;;;16.40;63.70;;;;;;2028911;28;19995;-66
2022/05/01 05:13:45;;;;;;;;;;;16.40;64.40;;;;;;2028389;28;20443;-66
2022/05/01 05:14:43;;;;;;;;;;;16.40;63.10;;;;;;2028810;28;20069;-66
2022/05/01 05:15:42;;;;;;;;;;;16.40;63.00;;;;;;2029513;28;19911;-66
2022/05/01 05:16:41;;;;;;;;;;;16.30;62.90;;;;;;2028695;28;20287;-66
2022/05/01 05:17:40;;;;;;;;;;;16.40;63.10;;;;;;2028746;28;19904;-65
2022/05/01 05:18:42;;;;;;;;;;;16.40;63.10;;;;;;2029498;28;19904;-65
2022/05/01 05:19:40;;;;;;;;;;;16.40;63.20;;;;;;2029509;28;20286;-65
2022/05/01 05:20:39;;;;;;;;;;;16.50;63.00;;;;;;2028753;28;19948;-65
2022/05/01 05:21:39;;;;;;;;;;;16.40;62.90;;;;;;2029002;28;19905;-65
2022/05/01 05:22:39;;;;;;;;;;;16.40;62.90;;;;;;2029422;28;19905;-65
2022/05/01 05:23:37;;;;;;;;;;;16.50;63.50;;;;;;2028593;28;19908;-65
2022/05/01 05:24:36;;;;;;;;;;;16.40;62.90;;;;;;2028845;28;19905;-65
2022/05/01 05:25:34;;;;;;;;;;;16.90;62.90;;;;;;2028665;28;20291;-65
2022/05/01 05:26:33;;;;;;;;;;;16.40;62.60;;;;;;2028759;28;19904;-66
2022/05/01 05:27:31;;;;;;;;;;;16.50;62.70;;;;;;2029382;28;19904;-66
2022/05/01 05:28:30;;;;;;;;;;;16.40;62.70;;;;;;2029421;28;19998;-65
2022/05/01 05:29:28;;;;;;;;;;;16.40;62.60;;;;;;2029229;28;19908;-66
2022/05/01 05:30:27;;;;;;;;;;;16.40;62.60;;;;;;2029337;28;19912;-66
2022/05/01 05:31:25;;;;;;;;;;;16.40;62.80;;;;;;2029576;28;19990;-66
2022/05/01 05:32:24;;;;;;;;;;;16.50;62.90;;;;;;2029297;28;19912;-66
2022/05/01 05:33:24;;;;;;;;;;;16.40;62.90;;;;;;2029278;28;19915;-67
2022/05/01 05:34:23;;;;;;;;;;;16.50;62.90;;;;;;2029163;28;20257;-65
2022/05/01 05:35:21;;;;;;;;;;;16.40;62.60;;;;;;2027888;28;20001;-65
2022/05/01 05:36:20;;;;;;;;;;;16.40;62.60;;;;;;2028781;28;19935;-65
2022/05/01 05:37:18;;;;;;;;;;;16.50;62.80;;;;;;2029410;28;20287;-65
2022/05/01 05:38:17;;;;;;;;;;;16.40;63.00;;;;;;2029153;28;20259;-66
2022/05/01 05:39:18;;;;;;;;;;;16.40;62.70;;;;;;2031356;28;19905;-66
2022/05/01 05:40:17;;;;;;;;;;;16.50;62.90;;;;;;2037348;28;19904;-65
2022/05/01 05:41:17;;;;;;;;;;;16.50;62.90;;;;;;2037750;28;19892;-66
2022/05/01 05:42:16;;;;;;;;;;;16.50;64.70;;;;;;2038173;28;19963;-66
2022/05/01 05:43:15;;;;;;;;;;;16.50;63.60;;;;;;2036078;28;19908;-66
2022/05/01 05:44:13;;;;;;;;;;;16.50;62.90;;;;;;2031095;28;20358;-65
2022/05/01 05:45:13;;;;;;;;;;;16.50;63.20;;;;;;2030519;28;19904;-66
2022/05/01 05:46:11;;;;;;;;;;;16.50;63.40;;;;;;2030168;28;19904;-65
2022/05/01 05:47:13;;;;;;;;;;;16.50;63.10;;;;;;2029472;28;19944;-66
2022/05/01 05:48:11;;;;;;;;;;;16.50;64.60;;;;;;2029511;28;19927;-66
2022/05/01 05:49:10;;;;;;;;;;;16.40;62.90;;;;;;2029584;28;19904;-67
2022/05/01 05:50:09;;;;;;;;;;;16.40;63.10;;;;;;2029506;28;20003;-66
2022/05/01 05:51:07;;;;;;;;;;;16.50;64.40;;;;;;2029574;28;19905;-65
2022/05/01 05:52:06;;;;;;;;;;;16.40;62.80;;;;;;2029278;28;19940;-66
2022/05/01 05:53:04;;;;;;;;;;;16.50;63.70;;;;;;2029305;28;19947;-65
2022/05/01 05:54:03;;;;;;;;;;;16.50;63.20;;;;;;2029473;28;19904;-65
2022/05/01 05:55:03;;;;;;;;;;;16.50;63.40;;;;;;2029451;28;19904;-65
2022/05/01 05:56:01;;;;;;;;;;;16.50;65.00;;;;;;2029384;28;19967;-66
2022/05/01 05:57:00;;;;;;;;;;;16.60;63.30;;;;;;2029499;28;19905;-66
2022/05/01 05:57:58;;;;;;;;;;;16.40;63.40;;;;;;2029387;28;19908;-65
2022/05/01 05:58:57;;;;;;;;;;;16.50;63.30;;;;;;2029493;28;19904;-65
2022/05/01 05:59:55;;;;;;;;;;;16.50;63.90;;;;;;2029330;28;19912;-65
2022/05/01 06:00:54;;;;;;;;;;;16.50;63.90;;;;;;2029498;28;20267;-66